Time;durP1;ratioP1;P1;durP2;ratioP2;P2;SDS_P1;SDS_P2;PMS_P1;PMS_P2;Temp;Humidity;BMP_temperature;BMP_pressure;BME280_temperature;BME280_humidity;BME280_pressure;Samples;Min_cycle;Max_cycle;Signal;HPM_P1;HPM_P2
2023/10/02 00:02:42;;;;;;;10.67;9.13;;;17.30;99.90;;;;;;5036121;28;20488;-65
2023/10/02 00:05:11;;;;;;;10.97;9.40;;;17.30;99.90;;;;;;5028898;28;20553;-66
2023/10/02 00:07:42;;;;;;;11.13;8.23;;;17.40;99.90;;;;;;5034943;28;20470;-65
2023/10/02 00:10:15;;;;;;;12.27;8.70;;;17.40;99.90;;;;;;5025626;28;20498;-65
2023/10/02 00:12:58;;;;;;;13.57;8.03;;;17.40;99.90;;;;;;5025754;28;20471;-67
2023/10/02 00:15:27;;;;;;;11.80;9.03;;;17.30;99.90;;;;;;5032510;28;20470;-66
2023/10/02 00:17:57;;;;;;;12.80;9.10;;;17.30;99.90;;;;;;5034147;28;20483;-66
2023/10/02 00:20:26;;;;;;;12.00;8.80;;;17.30;99.90;;;;;;5029592;28;20522;-66
2023/10/02 00:22:55;;;;;;;10.43;8.57;;;17.30;99.90;;;;;;5032403;28;20474;-66
2023/10/02 00:25:27;;;;;;;13.40;9.23;;;17.30;99.90;;;;;;5030395;28;20503;-66
2023/10/02 00:27:59;;;;;;;12.37;8.70;;;17.20;99.90;;;;;;5029984;28;20562;-66
2023/10/02 00:30:35;;;;;;;9.30;8.33;;;17.20;99.90;;;;;;5032164;28;20483;-66
2023/10/02 00:33:11;;;;;;;12.97;9.20;;;17.20;99.90;;;;;;5030482;28;20475;-67
2023/10/02 00:35:50;;;;;;;12.67;9.00;;;17.20;99.90;;;;;;5030684;28;20509;-65
2023/10/02 00:38:19;;;;;;;10.73;8.70;;;17.20;99.90;;;;;;5024836;28;20467;-66
2023/10/02 00:40:47;;;;;;;13.27;9.27;;;17.20;99.90;;;;;;5025819;28;20491;-66
2023/10/02 00:45:59;;;;;;;13.33;9.60;;;17.10;99.90;;;;;;5027260;28;20525;-66
2023/10/02 00:48:28;;;;;;;12.57;8.43;;;17.20;99.90;;;;;;5024278;28;20482;-66
2023/10/02 00:51:00;;;;;;;11.20;8.80;;;17.20;99.90;;;;;;5026537;28;20529;-66
2023/10/02 00:53:39;;;;;;;12.33;9.40;;;17.20;99.90;;;;;;5028005;28;20468;-66
2023/10/02 00:56:19;;;;;;;11.93;9.03;;;17.20;99.90;;;;;;5029282;28;20988;-66
2023/10/02 00:58:55;;;;;;;12.63;9.93;;;17.20;99.90;;;;;;5029066;28;20533;-66
2023/10/02 01:01:23;;;;;;;10.60;8.90;;;17.20;99.90;;;;;;5026798;28;20475;-66
2023/10/02 01:04:10;;;;;;;12.63;9.97;;;17.20;99.90;;;;;;5032026;28;20463;-66
2023/10/02 01:07:04;;;;;;;11.90;9.87;;;17.20;99.90;;;;;;5033938;28;20554;-65
2023/10/02 01:09:34;;;;;;;15.10;10.03;;;17.20;99.90;;;;;;5032545;28;20553;-66
2023/10/02 01:12:03;;;;;;;12.10;9.40;;;17.20;99.90;;;;;;5020979;28;20886;-66
2023/10/02 01:14:50;;;;;;;12.27;9.77;;;17.20;99.90;;;;;;5022517;28;20471;-66
2023/10/02 01:17:20;;;;;;;10.20;9.10;;;17.20;99.90;;;;;;5025064;28;20979;-66
2023/10/02 01:19:53;;;;;;;14.17;10.83;;;17.20;99.90;;;;;;5027406;28;20612;-66
2023/10/02 01:22:27;;;;;;;12.93;10.00;;;17.30;99.90;;;;;;5026859;28;20474;-65
2023/10/02 01:25:06;;;;;;;13.03;9.80;;;17.30;99.90;;;;;;5024537;28;20943;-66
2023/10/02 01:27:40;;;;;;;14.20;10.00;;;17.20;99.90;;;;;;5033947;28;20770;-66
2023/10/02 01:30:18;;;;;;;12.07;9.60;;;17.20;99.90;;;;;;5031537;28;20478;-65
2023/10/02 01:35:37;;;;;;;12.37;9.13;;;17.20;99.90;;;;;;5037458;28;20479;-71
2023/10/02 01:38:12;;;;;;;14.80;10.87;;;17.30;99.90;;;;;;5043962;28;20466;-66
2023/10/02 01:40:48;;;;;;;12.43;9.77;;;17.20;99.90;;;;;;5028444;28;20498;-66
2023/10/02 01:43:19;;;;;;;13.47;9.30;;;17.30;99.90;;;;;;5031895;28;20494;-66
2023/10/02 01:45:48;;;;;;;13.77;9.70;;;17.20;99.90;;;;;;5029456;28;20909;-65
2023/10/02 01:48:36;;;;;;;13.20;9.53;;;17.20;99.90;;;;;;5033740;28;20499;-65
2023/10/02 01:53:57;;;;;;;12.70;9.90;;;17.20;99.90;;;;;;5014296;28;20476;-65
2023/10/02 01:56:29;;;;;;;12.80;9.93;;;17.20;99.90;;;;;;5018853;28;20576;-65
2023/10/02 01:59:08;;;;;;;12.20;9.80;;;17.20;99.90;;;;;;5035720;28;20494;-65
2023/10/02 02:01:46;;;;;;;14.57;10.60;;;17.20;99.90;;;;;;5020229;28;20491;-65
2023/10/02 02:04:15;;;;;;;13.80;10.57;;;17.20;99.90;;;;;;5028042;28;20987;-66
2023/10/02 02:06:52;;;;;;;13.70;10.03;;;17.20;99.90;;;;;;5027097;28;20521;-66
2023/10/02 02:09:23;;;;;;;12.80;11.13;;;17.20;99.90;;;;;;5025902;28;20495;-66
2023/10/02 02:12:07;;;;;;;13.13;9.80;;;17.30;99.90;;;;;;5016562;28;20472;-65
2023/10/02 02:14:41;;;;;;;14.77;10.70;;;17.20;99.90;;;;;;5024135;28;20479;-67
2023/10/02 02:17:14;;;;;;;13.60;9.67;;;17.30;99.90;;;;;;5023585;28;20982;-66
2023/10/02 02:19:48;;;;;;;13.47;10.80;;;17.30;99.90;;;;;;5020374;28;20536;-66
2023/10/02 02:22:17;;;;;;;13.47;10.10;;;17.30;99.90;;;;;;5022726;28;20466;-66
2023/10/02 02:24:46;;;;;;;15.87;12.13;;;17.30;99.90;;;;;;5026672;28;20979;-66
2023/10/02 02:27:17;;;;;;;14.17;10.50;;;17.30;99.90;;;;;;5026109;28;20475;-66
2023/10/02 02:29:46;;;;;;;12.97;9.77;;;17.20;99.90;;;;;;5024878;28;20569;-66
2023/10/02 02:32:17;;;;;;;15.17;10.80;;;17.20;99.90;;;;;;5029875;28;20467;-66
2023/10/02 02:34:45;;;;;;;13.07;10.03;;;17.20;99.90;;;;;;5032163;28;20861;-66
2023/10/02 02:37:13;;;;;;;13.60;10.13;;;17.20;99.90;;;;;;5030863;28;20466;-65
2023/10/02 02:39:41;;;;;;;13.90;10.07;;;17.20;99.90;;;;;;5022656;28;20525;-65
2023/10/02 02:42:22;;;;;;;13.43;10.40;;;17.20;99.90;;;;;;5031431;28;20558;-65
2023/10/02 02:44:51;;;;;;;13.00;9.90;;;17.20;99.90;;;;;;5030347;28;20530;-65
2023/10/02 02:47:21;;;;;;;17.10;11.90;;;17.20;99.90;;;;;;5032977;28;20455;-66
2023/10/02 02:49:52;;;;;;;14.23;11.03;;;17.20;99.90;;;;;;5044574;22;20462;-61
2023/10/02 02:52:24;;;;;;;14.60;10.90;;;17.20;99.90;;;;;;5028011;28;20848;-61
2023/10/02 02:54:59;;;;;;;14.13;10.00;;;17.20;99.90;;;;;;5027604;28;20474;-61
2023/10/02 02:57:28;;;;;;;12.70;9.77;;;17.20;99.90;;;;;;5015054;28;20566;-60
2023/10/02 03:02:46;;;;;;;14.87;10.03;;;17.10;99.90;;;;;;5027977;28;20467;-61
2023/10/02 03:05:16;;;;;;;13.40;9.90;;;17.10;99.90;;;;;;5023754;28;20463;-61
2023/10/02 03:07:45;;;;;;;12.97;10.03;;;17.20;99.90;;;;;;5025789;28;20471;-59
2023/10/02 03:10:13;;;;;;;15.17;11.13;;;17.10;99.90;;;;;;5018307;28;20537;-61
2023/10/02 03:12:45;;;;;;;15.10;10.50;;;17.10;99.90;;;;;;5023264;28;20473;-61
2023/10/02 03:15:17;;;;;;;13.93;10.83;;;17.10;99.90;;;;;;5020007;28;20880;-61
2023/10/02 03:17:46;;;;;;;13.17;10.40;;;17.10;99.90;;;;;;5021919;28;20745;-60
2023/10/02 03:20:23;;;;;;;13.50;9.77;;;17.10;99.90;;;;;;5011323;28;20487;-61
2023/10/02 03:22:53;;;;;;;15.97;10.23;;;17.10;99.90;;;;;;5014710;28;20463;-60
2023/10/02 03:25:40;;;;;;;11.17;9.97;;;17.10;99.90;;;;;;5020430;28;20578;-63
2023/10/02 03:28:16;;;;;;;13.27;10.07;;;17.10;99.90;;;;;;5018888;28;20478;-62
2023/10/02 03:30:47;;;;;;;14.07;9.90;;;17.00;99.90;;;;;;5025080;28;20657;-61
2023/10/02 03:33:20;;;;;;;13.53;10.47;;;17.00;99.90;;;;;;5031132;28;20471;-62
2023/10/02 03:35:58;;;;;;;11.07;8.77;;;17.00;99.90;;;;;;5015808;28;21434;-62
2023/10/02 03:38:26;;;;;;;16.63;10.40;;;16.90;99.90;;;;;;5028784;28;20951;-62
2023/10/02 03:40:57;;;;;;;13.30;10.60;;;16.90;99.90;;;;;;5024875;28;20491;-62
2023/10/02 03:43:35;;;;;;;14.93;10.60;;;16.90;99.90;;;;;;5021942;28;20473;-61
2023/10/02 03:46:06;;;;;;;14.10;10.50;;;16.80;99.90;;;;;;5020560;28;20477;-62
2023/10/02 03:48:36;;;;;;;12.10;9.37;;;16.80;99.90;;;;;;5017972;28;20468;-62
2023/10/02 03:51:05;;;;;;;18.90;11.07;;;16.80;99.90;;;;;;5025721;28;20844;-62
2023/10/02 03:53:34;;;;;;;15.90;11.20;;;16.80;99.90;;;;;;5028481;28;20497;-62
2023/10/02 03:58:45;;;;;;;12.90;10.60;;;16.80;99.90;;;;;;5027826;28;20474;-62
2023/10/02 04:01:17;;;;;;;14.77;10.40;;;16.80;99.90;;;;;;5025260;28;20602;-62
2023/10/02 04:04:07;;;;;;;16.77;11.00;;;16.70;99.90;;;;;;5031060;28;20641;-62
2023/10/02 04:06:36;;;;;;;15.30;11.07;;;16.70;99.90;;;;;;5031162;28;20859;-62
2023/10/02 04:09:09;;;;;;;15.50;10.80;;;16.70;99.90;;;;;;5030276;28;20473;-62
2023/10/02 04:11:38;;;;;;;14.17;10.33;;;16.70;99.90;;;;;;5028026;28;20589;-62
2023/10/02 04:14:17;;;;;;;14.20;10.00;;;16.70;99.90;;;;;;5028330;28;20464;-62
2023/10/02 04:16:48;;;;;;;14.23;11.17;;;16.70;99.90;;;;;;5028567;28;20826;-62
2023/10/02 04:19:16;;;;;;;14.80;10.37;;;16.60;99.90;;;;;;5018303;28;20479;-61
2023/10/02 04:21:48;;;;;;;13.90;10.47;;;16.60;99.90;;;;;;5025817;28;20506;-63
2023/10/02 04:24:23;;;;;;;14.53;10.40;;;16.60;99.90;;;;;;5021469;28;20858;-63
2023/10/02 04:26:54;;;;;;;13.13;9.80;;;16.60;99.90;;;;;;5017489;28;20472;-62
2023/10/02 04:29:28;;;;;;;14.90;9.97;;;16.60;99.90;;;;;;5018872;28;20467;-62
2023/10/02 04:32:15;;;;;;;12.43;10.03;;;16.60;99.90;;;;;;5022893;28;20947;-62
2023/10/02 04:34:56;;;;;;;16.13;11.37;;;16.60;99.90;;;;;;5028996;28;20992;-62
2023/10/02 04:37:23;;;;;;;16.10;11.77;;;16.60;99.90;;;;;;5021395;28;20471;-62
2023/10/02 04:40:13;;;;;;;14.40;10.80;;;16.60;99.90;;;;;;5023212;28;20487;-62
2023/10/02 04:45:36;;;;;;;15.10;11.87;;;16.70;99.90;;;;;;5015132;28;20950;-62
2023/10/02 04:48:09;;;;;;;13.73;11.10;;;16.70;99.90;;;;;;5021440;28;20937;-61
2023/10/02 04:50:45;;;;;;;17.27;10.70;;;16.80;99.90;;;;;;5027956;28;21003;-62
2023/10/02 04:53:26;;;;;;;15.30;12.43;;;16.80;99.90;;;;;;5024725;28;20463;-62
2023/10/02 04:56:07;;;;;;;14.63;10.70;;;16.80;99.90;;;;;;5027957;28;20987;-61
2023/10/02 04:58:39;;;;;;;13.63;12.00;;;16.80;99.90;;;;;;5022771;28;20467;-62
2023/10/02 05:01:24;;;;;;;14.53;11.13;;;16.80;99.90;;;;;;5024981;28;20502;-62
2023/10/02 05:03:54;;;;;;;15.97;11.83;;;16.80;99.90;;;;;;5028396;28;20471;-63
2023/10/02 05:09:26;;;;;;;15.77;10.30;;;16.80;99.90;;;;;;5026104;28;20470;-61
2023/10/02 05:11:57;;;;;;;16.27;11.03;;;16.80;99.90;;;;;;5033449;28;20474;-62
2023/10/02 05:14:29;;;;;;;14.40;10.47;;;16.80;99.90;;;;;;5031367;28;20486;-62
2023/10/02 05:17:19;;;;;;;15.67;11.30;;;16.80;99.90;;;;;;5016816;28;20524;-62
2023/10/02 05:20:03;;;;;;;15.83;10.33;;;16.80;99.90;;;;;;5024680;28;20568;-62
2023/10/02 05:22:33;;;;;;;15.27;10.70;;;16.80;99.90;;;;;;5023507;28;20529;-60
2023/10/02 05:25:04;;;;;;;14.10;10.67;;;16.70;99.90;;;;;;5021330;28;20509;-61
2023/10/02 05:27:33;;;;;;;14.70;10.93;;;16.80;99.90;;;;;;5025264;28;20463;-62
2023/10/02 05:30:05;;;;;;;15.30;10.47;;;16.70;99.90;;;;;;5020564;28;20495;-62
2023/10/02 05:32:35;;;;;;;14.53;10.30;;;16.70;99.90;;;;;;4993839;28;20989;-61
2023/10/02 05:35:16;;;;;;;13.40;10.80;;;16.70;99.90;;;;;;5013845;28;20487;-61
2023/10/02 05:37:45;;;;;;;12.23;10.23;;;16.70;99.90;;;;;;5018529;28;20831;-61
2023/10/02 05:40:37;;;;;;;13.00;11.13;;;16.70;99.90;;;;;;5005817;28;20568;-62
2023/10/02 05:43:17;;;;;;;15.30;11.10;;;16.70;99.90;;;;;;5017168;28;21070;-62
2023/10/02 05:45:50;;;;;;;13.87;10.87;;;16.80;99.90;;;;;;5015808;28;20578;-62
2023/10/02 05:48:27;;;;;;;12.80;10.27;;;16.80;99.90;;;;;;5010386;28;20555;-61
2023/10/02 05:50:59;;;;;;;15.37;11.60;;;16.80;99.90;;;;;;5017648;28;20589;-62
2023/10/02 05:53:34;;;;;;;12.00;10.10;;;16.80;99.90;;;;;;5016069;28;20471;-60
2023/10/02 05:56:13;;;;;;;11.97;9.17;;;16.80;99.90;;;;;;5017350;28;21032;-62
2023/10/02 05:58:42;;;;;;;11.40;9.90;;;16.80;99.90;;;;;;5004711;28;20569;-62
2023/10/02 06:01:26;;;;;;;13.73;10.40;;;16.80;99.90;;;;;;5011728;28;20506;-62
2023/10/02 06:04:00;;;;;;;12.33;9.90;;;16.80;99.90;;;;;;5009367;28;20467;-60
2023/10/02 06:06:35;;;;;;;13.67;10.50;;;16.80;99.90;;;;;;5014096;28;20501;-62
2023/10/02 06:09:13;;;;;;;13.90;10.50;;;16.80;99.90;;;;;;5011665;28;20980;-61
2023/10/02 06:12:02;;;;;;;14.40;10.43;;;16.80;99.90;;;;;;4999920;28;20495;-61
2023/10/02 06:14:38;;;;;;;13.10;10.40;;;16.80;99.90;;;;;;5012886;28;20842;-61
2023/10/02 06:17:11;;;;;;;15.27;11.17;;;16.90;99.90;;;;;;5011394;28;21074;-61
2023/10/02 06:19:44;;;;;;;15.10;11.50;;;16.90;99.90;;;;;;5005495;28;20489;-61
2023/10/02 06:22:14;;;;;;;13.40;10.77;;;16.90;99.90;;;;;;5004730;28;20602;-61
2023/10/02 06:24:42;;;;;;;14.87;10.77;;;16.90;99.90;;;;;;5005635;28;20475;-61
2023/10/02 06:27:17;;;;;;;14.97;11.10;;;17.00;99.90;;;;;;5007145;28;21148;-61
2023/10/02 06:29:48;;;;;;;13.87;10.40;;;17.00;99.90;;;;;;5012836;28;20490;-61
2023/10/02 06:32:19;;;;;;;15.03;10.37;;;17.00;99.90;;;;;;5009939;28;20484;-61
2023/10/02 06:34:50;;;;;;;15.23;10.80;;;17.00;99.90;;;;;;5016912;28;20996;-61
2023/10/02 06:37:25;;;;;;;16.73;10.63;;;17.00;99.90;;;;;;5009609;28;20503;-61
2023/10/02 06:40:04;;;;;;;15.07;10.00;;;17.10;99.90;;;;;;5011274;28;20578;-62
2023/10/02 06:42:33;;;;;;;15.20;10.80;;;17.10;99.90;;;;;;5007905;28;20496;-64
2023/10/02 06:45:02;;;;;;;15.00;10.40;;;17.10;99.90;;;;;;5012739;28;20661;-61
2023/10/02 06:47:34;;;;;;;12.00;10.00;;;17.20;99.90;;;;;;5019830;28;20463;-61
2023/10/02 06:50:04;;;;;;;13.37;10.70;;;17.20;99.90;;;;;;5016795;28;20625;-60
2023/10/02 06:52:34;;;;;;;13.70;11.40;;;17.30;99.90;;;;;;5006411;28;20991;-60
2023/10/02 06:55:03;;;;;;;14.83;10.93;;;17.20;99.90;;;;;;5008591;28;20978;-61
2023/10/02 06:57:32;;;;;;;15.07;10.73;;;17.30;99.90;;;;;;5014655;28;20525;-61
2023/10/02 07:00:03;;;;;;;14.97;10.70;;;17.40;99.90;;;;;;5018574;28;20491;-61
2023/10/02 07:02:32;;;;;;;14.13;10.80;;;17.40;99.90;;;;;;5011401;28;20487;-61
2023/10/02 07:05:01;;;;;;;13.83;9.50;;;17.40;99.90;;;;;;5007401;28;20971;-60
2023/10/02 07:07:32;;;;;;;12.80;10.20;;;17.50;99.90;;;;;;5006545;28;20471;-60
2023/10/02 07:10:07;;;;;;;17.10;9.83;;;17.50;99.90;;;;;;5013832;28;20561;-61
2023/10/02 07:12:39;;;;;;;12.90;9.60;;;17.60;99.90;;;;;;5018797;28;22399;-61
2023/10/02 07:15:13;;;;;;;14.63;10.53;;;17.50;99.90;;;;;;5020874;28;20538;-61
2023/10/02 07:17:48;;;;;;;12.80;9.70;;;17.60;99.90;;;;;;5016350;28;20898;-59
2023/10/02 07:20:20;;;;;;;13.77;10.43;;;17.60;99.90;;;;;;5005331;28;20517;-61
2023/10/02 07:22:50;;;;;;;14.37;10.43;;;17.70;99.90;;;;;;5016473;28;20947;-60
2023/10/02 07:25:24;;;;;;;14.93;10.07;;;17.70;99.90;;;;;;5009932;28;20487;-60
2023/10/02 07:27:52;;;;;;;19.30;11.53;;;17.80;99.90;;;;;;5004653;28;20475;-60
2023/10/02 07:30:26;;;;;;;15.93;9.53;;;17.90;99.90;;;;;;5008891;28;20534;-61
2023/10/02 07:33:02;;;;;;;13.57;10.10;;;17.90;99.90;;;;;;5014366;28;20497;-60
2023/10/02 07:35:31;;;;;;;12.60;10.10;;;18.00;99.90;;;;;;5001868;28;20483;-60
2023/10/02 07:37:59;;;;;;;15.10;9.87;;;18.00;99.90;;;;;;5006656;28;20476;-60
2023/10/02 07:40:46;;;;;;;14.60;10.50;;;18.00;99.90;;;;;;5014396;28;21156;-60
2023/10/02 07:43:16;;;;;;;12.90;10.03;;;18.10;99.90;;;;;;5015429;28;20523;-61
2023/10/02 07:45:45;;;;;;;13.67;9.93;;;18.10;99.90;;;;;;5012236;28;20920;-59
2023/10/02 07:48:19;;;;;;;12.50;10.70;;;18.10;99.90;;;;;;5019128;28;20570;-60
2023/10/02 07:50:47;;;;;;;14.40;9.60;;;18.10;99.90;;;;;;5015925;28;20498;-60
2023/10/02 07:53:15;;;;;;;14.80;10.23;;;18.20;99.90;;;;;;5013731;28;21005;-59
2023/10/02 07:55:47;;;;;;;13.23;9.60;;;18.20;99.90;;;;;;5017037;28;20707;-61
2023/10/02 07:58:19;;;;;;;13.33;9.67;;;18.20;99.90;;;;;;5019724;28;20529;-61
2023/10/02 08:00:49;;;;;;;14.00;10.43;;;18.20;99.90;;;;;;5028565;28;20619;-60
2023/10/02 08:03:34;;;;;;;13.00;9.67;;;18.30;99.90;;;;;;5020715;28;20497;-61
2023/10/02 08:06:20;;;;;;;15.87;9.90;;;18.40;99.90;;;;;;5023487;28;20481;-61
2023/10/02 08:09:24;;;;;;;14.10;10.00;;;18.40;99.90;;;;;;5023698;28;20475;-61
2023/10/02 08:11:39;;;;;;;13.33;9.73;;;18.50;99.90;;;;;;5019371;28;20598;-60
2023/10/02 08:14:34;;;;;;;14.50;9.77;;;18.60;99.90;;;;;;5023462;28;20571;-61
2023/10/02 08:16:59;;;;;;;13.23;9.43;;;18.60;99.90;;;;;;5023948;28;20901;-61
2023/10/02 08:19:28;;;;;;;13.10;9.80;;;18.70;99.90;;;;;;5016582;28;20485;-59
2023/10/02 08:21:56;;;;;;;11.00;9.87;;;18.80;99.90;;;;;;5014512;28;20576;-60
2023/10/02 08:24:24;;;;;;;14.13;9.80;;;18.80;99.90;;;;;;5016645;28;21076;-60
2023/10/02 08:26:56;;;;;;;14.00;9.67;;;18.80;99.90;;;;;;5015476;28;20999;-61
2023/10/02 08:29:26;;;;;;;12.80;9.80;;;18.90;99.90;;;;;;5021854;28;20889;-61
2023/10/02 08:31:55;;;;;;;11.83;10.23;;;18.90;99.90;;;;;;5015884;28;20590;-60
2023/10/02 08:34:25;;;;;;;14.20;9.93;;;19.00;99.90;;;;;;5020371;28;20866;-61
2023/10/02 08:37:07;;;;;;;12.47;9.67;;;19.00;99.90;;;;;;5010235;28;20476;-59
2023/10/02 08:39:36;;;;;;;13.90;10.70;;;19.10;99.90;;;;;;5010861;28;20816;-60
2023/10/02 08:42:09;;;;;;;15.90;9.93;;;19.10;99.90;;;;;;5008529;28;21015;-59
2023/10/02 08:44:40;;;;;;;13.30;9.20;;;19.20;99.90;;;;;;5011663;28;20578;-61
2023/10/02 08:47:11;;;;;;;14.07;11.17;;;19.20;99.90;;;;;;5015690;28;20466;-60
2023/10/02 08:49:40;;;;;;;13.60;10.60;;;19.30;99.90;;;;;;5033868;22;20471;-67
2023/10/02 08:52:09;;;;;;;13.20;9.47;;;19.30;99.90;;;;;;4988367;28;20493;-65
2023/10/02 08:54:39;;;;;;;11.80;9.40;;;19.30;99.90;;;;;;4990981;28;20473;-66
2023/10/02 08:57:09;;;;;;;13.10;10.13;;;19.40;99.90;;;;;;4997503;28;20973;-66
2023/10/02 08:59:40;;;;;;;14.60;9.70;;;19.40;99.90;;;;;;4985296;28;20464;-67
2023/10/02 09:02:13;;;;;;;14.30;10.33;;;19.50;99.90;;;;;;5003975;28;20468;-67
2023/10/02 09:04:51;;;;;;;11.97;10.30;;;19.50;99.90;;;;;;5000586;28;20500;-66
2023/10/02 09:07:24;;;;;;;10.43;8.50;;;19.50;99.90;;;;;;5007965;28;20476;-67
2023/10/02 09:10:18;;;;;;;11.43;9.37;;;19.60;99.90;;;;;;4994727;28;20459;-71
2023/10/02 09:12:52;;;;;;;14.40;10.47;;;19.60;99.90;;;;;;5002579;28;20488;-67
2023/10/02 09:15:29;;;;;;;14.43;10.97;;;19.70;99.90;;;;;;5001573;28;20510;-67
2023/10/02 09:18:19;;;;;;;14.10;9.53;;;19.80;99.90;;;;;;5004757;28;20468;-67
2023/10/02 09:20:53;;;;;;;16.10;10.93;;;19.80;99.90;;;;;;5003090;28;20478;-69
2023/10/02 09:23:25;;;;;;;11.47;9.10;;;19.90;99.90;;;;;;5000879;28;20538;-67
2023/10/02 09:26:16;;;;;;;12.10;9.47;;;20.00;99.90;;;;;;5002438;28;20481;-67
2023/10/02 09:28:58;;;;;;;13.00;10.03;;;20.00;99.90;;;;;;5010268;28;20562;-67
2023/10/02 09:31:28;;;;;;;12.23;9.40;;;20.00;99.90;;;;;;5010201;28;20579;-67
2023/10/02 09:33:57;;;;;;;14.43;10.40;;;20.10;99.90;;;;;;5000373;28;20550;-67
2023/10/02 09:36:53;;;;;;;12.80;9.73;;;20.10;99.90;;;;;;5008128;28;20471;-67
2023/10/02 09:39:41;;;;;;;15.43;10.57;;;20.20;99.90;;;;;;5003261;28;20836;-67
2023/10/02 09:42:10;;;;;;;12.10;10.17;;;20.20;99.90;;;;;;5007842;28;20479;-67
2023/10/02 09:44:45;;;;;;;11.07;9.90;;;20.20;99.90;;;;;;5008493;28;21077;-67
2023/10/02 09:47:14;;;;;;;12.60;9.90;;;20.30;99.90;;;;;;5009229;28;20985;-67
2023/10/02 09:50:10;;;;;;;15.67;11.03;;;20.40;99.90;;;;;;4999511;28;20949;-67
2023/10/02 09:52:58;;;;;;;12.87;9.47;;;20.50;99.90;;;;;;4996886;28;20528;-66
2023/10/02 09:55:44;;;;;;;14.17;9.90;;;20.50;99.90;;;;;;5002768;28;20499;-66
2023/10/02 09:58:27;;;;;;;13.43;9.50;;;20.70;99.90;;;;;;5003990;28;20869;-67
2023/10/02 10:03:52;;;;;;;12.47;9.40;;;20.80;99.90;;;;;;5117563;27;20853;-66
2023/10/02 10:06:27;;;;;;;12.47;10.10;;;21.00;99.90;;;;;;5105812;28;20550;-68
2023/10/02 10:09:25;;;;;;;14.30;10.63;;;21.10;99.90;;;;;;5102220;28;20979;-65
2023/10/02 10:14:42;;;;;;;12.40;9.40;;;21.20;99.90;;;;;;5098059;28;20809;-65
2023/10/02 10:17:58;;;;;;;11.27;9.03;;;21.30;99.90;;;;;;5091776;28;20567;-67
2023/10/02 10:20:30;;;;;;;12.53;9.37;;;21.40;99.90;;;;;;5078960;28;20583;-65
2023/10/02 10:22:57;;;;;;;11.47;9.10;;;21.60;99.90;;;;;;5081624;28;20496;-65
2023/10/02 10:25:50;;;;;;;12.90;10.20;;;21.70;99.90;;;;;;5078330;28;20576;-66
2023/10/02 10:28:27;;;;;;;11.20;9.20;;;21.80;99.90;;;;;;5081691;28;20548;-65
2023/10/02 10:31:01;;;;;;;10.73;8.83;;;21.90;99.90;;;;;;5081824;28;20499;-65
2023/10/02 10:33:36;;;;;;;11.50;9.10;;;21.90;99.90;;;;;;5079909;28;20556;-66
2023/10/02 10:36:36;;;;;;;13.40;9.43;;;22.00;99.90;;;;;;5072678;28;20456;-65
2023/10/02 10:42:02;;;;;;;13.00;9.00;;;22.10;99.90;;;;;;5072045;28;21027;-65
2023/10/02 10:44:33;;;;;;;11.20;9.00;;;22.20;99.90;;;;;;5080280;28;21018;-66
2023/10/02 10:47:03;;;;;;;11.00;8.43;;;22.30;99.90;;;;;;5079478;28;21711;-65
2023/10/02 10:49:53;;;;;;;12.20;8.50;;;22.40;99.90;;;;;;5081880;28;20996;-66
2023/10/02 10:52:34;;;;;;;11.90;8.93;;;22.50;99.90;;;;;;5077794;28;20540;-65
2023/10/02 10:55:05;;;;;;;11.43;9.13;;;22.60;99.90;;;;;;5079858;28;20500;-65
2023/10/02 10:57:51;;;;;;;10.00;8.60;;;22.70;99.90;;;;;;5080222;28;20569;-66
2023/10/02 11:00:26;;;;;;;13.40;8.40;;;22.80;99.90;;;;;;5071755;28;20549;-66
2023/10/02 11:03:08;;;;;;;12.23;8.83;;;22.90;99.90;;;;;;5078581;28;20495;-66
2023/10/02 11:05:38;;;;;;;13.97;8.80;;;23.10;99.90;;;;;;5072745;28;20513;-66
2023/10/02 11:08:28;;;;;;;11.00;8.70;;;23.20;99.90;;;;;;5069755;28;20888;-66
2023/10/02 11:11:11;;;;;;;10.87;8.40;;;23.30;99.90;;;;;;5071905;28;21029;-66
2023/10/02 11:13:53;;;;;;;11.10;9.23;;;23.40;99.90;;;;;;5075638;28;20469;-66
2023/10/02 11:16:23;;;;;;;12.07;7.83;;;23.50;99.90;;;;;;5066897;28;20850;-65
2023/10/02 11:19:25;;;;;;;10.50;8.17;;;23.60;99.90;;;;;;5065485;28;20477;-68
2023/10/02 11:22:16;;;;;;;10.53;8.30;;;23.80;99.90;;;;;;5055188;28;20571;-65
2023/10/02 11:25:17;;;;;;;10.30;8.80;;;23.90;99.90;;;;;;5065034;28;20521;-66
2023/10/02 11:27:56;;;;;;;12.77;9.67;;;24.00;99.90;;;;;;5057540;28;20465;-65
2023/10/02 11:30:31;;;;;;;9.53;8.53;;;24.20;99.90;;;;;;5067607;28;20492;-66
2023/10/02 11:33:03;;;;;;;10.43;8.10;;;24.20;99.90;;;;;;5052763;28;20468;-66
2023/10/02 11:35:37;;;;;;;11.23;8.40;;;24.30;99.90;;;;;;5057906;28;20477;-66
2023/10/02 11:38:07;;;;;;;8.87;7.90;;;24.30;99.90;;;;;;5059891;28;20465;-65
2023/10/02 11:40:37;;;;;;;10.50;8.17;;;24.30;99.90;;;;;;5068554;28;20539;-65
2023/10/02 11:43:05;;;;;;;9.83;7.87;;;24.20;99.90;;;;;;5060316;28;20947;-67
2023/10/02 11:45:36;;;;;;;9.30;7.73;;;24.20;99.90;;;;;;5048177;28;20565;-65
2023/10/02 11:48:06;;;;;;;9.90;8.30;;;24.20;99.90;;;;;;5060175;28;20532;-66
2023/10/02 11:50:35;;;;;;;9.90;8.90;;;24.10;99.90;;;;;;5054139;28;20508;-65
2023/10/02 11:53:04;;;;;;;10.57;8.47;;;24.20;99.90;;;;;;5050690;28;20458;-65
2023/10/02 11:55:33;;;;;;;9.37;8.43;;;24.20;99.90;;;;;;5051517;28;20468;-66
2023/10/02 11:58:04;;;;;;;9.87;8.40;;;24.20;99.90;;;;;;5062021;28;20559;-66
2023/10/02 12:00:32;;;;;;;10.27;8.53;;;24.20;99.90;;;;;;5052987;28;20489;-67
2023/10/02 12:03:00;;;;;;;10.57;8.43;;;24.30;99.90;;;;;;5057656;28;20862;-67
2023/10/02 12:05:30;;;;;;;12.60;8.73;;;24.50;99.90;;;;;;5062010;28;21032;-66
2023/10/02 12:07:59;;;;;;;11.30;9.07;;;24.60;99.90;;;;;;5051482;28;24073;-67
2023/10/02 12:10:28;;;;;;;10.20;8.60;;;24.80;99.90;;;;;;5055360;28;20572;-64
2023/10/02 12:12:56;;;;;;;9.83;7.70;;;24.90;99.90;;;;;;5061115;28;20915;-64
2023/10/02 12:15:28;;;;;;;9.50;8.10;;;24.90;99.90;;;;;;5057520;28;20983;-65
2023/10/02 12:17:57;;;;;;;9.17;7.80;;;24.90;99.90;;;;;;5046840;28;20473;-62
2023/10/02 12:20:25;;;;;;;9.50;7.93;;;24.70;99.90;;;;;;5038558;28;20500;-65
2023/10/02 12:22:53;;;;;;;10.67;8.60;;;24.70;99.90;;;;;;5071450;28;20489;-65
2023/10/02 12:25:21;;;;;;;10.93;8.80;;;24.60;99.90;;;;;;5080976;28;20470;-66
2023/10/02 12:27:50;;;;;;;11.20;8.50;;;24.40;99.90;;;;;;5051703;28;20557;-67
2023/10/02 12:30:19;;;;;;;10.90;8.80;;;24.20;99.90;;;;;;5057016;28;20521;-67
2023/10/02 12:32:49;;;;;;;13.63;9.10;;;24.10;99.90;;;;;;5048736;28;20561;-68
2023/10/02 12:35:18;;;;;;;13.53;9.20;;;23.90;99.90;;;;;;5056761;28;20469;-67
2023/10/02 12:37:46;;;;;;;11.67;9.07;;;23.80;99.90;;;;;;5066903;28;20967;-70
2023/10/02 12:40:18;;;;;;;12.00;8.30;;;23.70;99.90;;;;;;5048662;28;20585;-67
2023/10/02 12:42:46;;;;;;;11.13;8.40;;;23.60;99.90;;;;;;5059163;28;20970;-68
2023/10/02 12:45:15;;;;;;;14.60;9.20;;;23.50;99.90;;;;;;5061269;28;20509;-67
2023/10/02 12:47:43;;;;;;;9.63;7.43;;;23.50;99.90;;;;;;5056410;28;20988;-67
2023/10/02 12:50:12;;;;;;;9.43;7.57;;;23.50;99.90;;;;;;5063073;28;20489;-67
2023/10/02 12:52:41;;;;;;;11.37;9.00;;;23.80;99.90;;;;;;5065161;28;20473;-67
2023/10/02 12:55:09;;;;;;;10.30;8.47;;;24.40;99.90;;;;;;5063135;28;20499;-67
2023/10/02 12:57:39;;;;;;;11.03;7.87;;;25.90;99.90;;;;;;5055060;28;20477;-66
2023/10/02 13:00:16;;;;;;;9.30;8.10;;;27.90;99.90;;;;;;5055396;28;20482;-68
2023/10/02 13:02:45;;;;;;;9.97;7.80;;;28.40;99.90;;;;;;5058706;28;20989;-67
2023/10/02 13:05:15;;;;;;;10.33;8.07;;;28.70;99.90;;;;;;5049519;28;20489;-66
2023/10/02 13:07:45;;;;;;;11.60;9.07;;;29.80;99.90;;;;;;5048777;28;20700;-68
2023/10/02 13:10:14;;;;;;;10.40;8.93;;;30.30;99.90;;;;;;5056964;28;20570;-66
2023/10/02 13:12:43;;;;;;;16.13;9.30;;;29.60;99.90;;;;;;5044525;28;20827;-67
2023/10/02 13:15:13;;;;;;;12.23;9.97;;;28.90;99.90;;;;;;5057586;28;20462;-63
2023/10/02 13:17:42;;;;;;;8.83;7.67;;;28.10;99.90;;;;;;5048490;28;26651;-65
2023/10/02 13:20:11;;;;;;;11.33;9.17;;;27.30;99.90;;;;;;5055531;28;20490;-64
2023/10/02 13:22:40;;;;;;;9.03;8.03;;;26.80;99.90;;;;;;5051644;28;20478;-65
2023/10/02 13:25:11;;;;;;;9.73;8.30;;;26.30;99.90;;;;;;5052740;28;20494;-67
2023/10/02 13:27:40;;;;;;;9.87;8.37;;;26.00;99.90;;;;;;5055572;28;20473;-67
2023/10/02 13:30:12;;;;;;;9.33;8.30;;;25.80;99.90;;;;;;5054989;28;20513;-65
2023/10/02 13:32:41;;;;;;;9.30;8.27;;;25.70;99.90;;;;;;5056530;28;20591;-66
2023/10/02 13:35:10;;;;;;;10.40;8.60;;;25.50;99.90;;;;;;5055234;28;20987;-66
2023/10/02 13:37:40;;;;;;;11.00;8.73;;;25.40;99.90;;;;;;5061837;28;20476;-64